Time;durP1;ratioP1;P1;durP2;ratioP2;P2;SDS_P1;SDS_P2;PMS_P1;PMS_P2;Temp;Humidity;BMP_temperature;BMP_pressure;BME280_temperature;BME280_humidity;BME280_pressure;Samples;Min_cycle;Max_cycle;Signal;HPM_P1;HPM_P2
2023/09/09 00:00:11;;;;;;;;;;;;;;;-146.25;100.00;52039.75;2088705;28;38658;-64
2023/09/09 00:01:13;;;;;;;;;;;;;;;-146.25;100.00;52043.78;2089240;28;29436;-63
2023/09/09 00:02:14;;;;;;;;;;;;;;;-146.25;100.00;52035.69;2088243;28;38587;-64
2023/09/09 00:03:17;;;;;;;;;;;;;;;-146.25;100.00;52035.69;2088821;28;37317;-63
2023/09/09 00:04:18;;;;;;;;;;;;;;;-146.25;100.00;52047.84;2087953;28;34461;-64
2023/09/09 00:05:20;;;;;;;;;;;;;;;-146.25;100.00;52023.53;2088010;28;38554;-64
2023/09/09 00:06:22;;;;;;;;;;;;;;;-146.25;100.00;52025.53;2088830;28;28900;-63
2023/09/09 00:07:23;;;;;;;;;;;;;;;-146.25;100.00;52039.75;2089087;28;19928;-63
2023/09/09 00:08:25;;;;;;;;;;;;;;;-146.25;100.00;52035.69;2088704;28;38160;-65
2023/09/09 00:09:27;;;;;;;;;;;;;;;-146.25;100.00;51985.00;2088598;28;36688;-64
2023/09/09 00:10:29;;;;;;;;;;;;;;;-146.25;100.00;51980.94;2088285;28;34194;-64
2023/09/09 00:11:32;;;;;;;;;;;;;;;-146.25;100.00;52011.34;2088642;28;37242;-63
2023/09/09 00:12:33;;;;;;;;;;;;;;;-146.25;100.00;52066.09;2088138;28;35529;-63
2023/09/09 00:13:37;;;;;;;;;;;;;;;-146.25;100.00;52025.53;2089078;28;31923;-64
2023/09/09 00:14:39;;;;;;;;;;;;;;;-146.25;100.00;51970.81;2088083;28;37250;-64
2023/09/09 00:15:40;;;;;;;;;;;;;;;-146.25;100.00;52055.97;2088816;28;37654;-64
2023/09/09 00:16:44;;;;;;;;;;;;;;;-146.25;100.00;52064.06;2088227;28;40260;-63
2023/09/09 00:17:46;;;;;;;;;;;;;;;-146.25;100.00;52055.97;2088623;28;35692;-64
2023/09/09 00:18:48;;;;;;;;;;;;;;;-146.25;100.00;52049.88;2089527;28;19921;-64
2023/09/09 00:19:55;;;;;;;;;;;;;;;-146.25;100.00;52053.94;2089092;28;19960;-63
2023/09/09 00:20:56;;;;;;;;;;;;;;;-146.25;100.00;52031.63;2088562;28;19921;-64
2023/09/09 00:21:58;;;;;;;;;;;;;;;-146.25;100.00;51993.09;2088757;28;36350;-64
2023/09/09 00:23:07;;;;;;;;;;;;;;;-146.25;100.00;52017.44;2088296;28;38616;-64
2023/09/09 00:24:09;;;;;;;;;;;;;;;-146.25;100.00;52015.41;2088959;28;36457;-64
2023/09/09 00:25:10;;;;;;;;;;;;;;;-146.25;100.00;52007.31;2088076;28;39279;-63
2023/09/09 00:26:12;;;;;;;;;;;;;;;-146.25;100.00;52033.66;2088726;28;35400;-63
2023/09/09 00:27:15;;;;;;;;;;;;;;;-146.25;100.00;52049.88;2096363;28;19921;-63
2023/09/09 00:28:16;;;;;;;;;;;;;;;-146.25;100.00;52035.69;2088045;28;31184;-63
2023/09/09 00:29:19;;;;;;;;;;;;;;;-146.25;100.00;52023.53;2088395;28;19984;-63
2023/09/09 00:30:20;;;;;;;;;;;;;;;-146.25;100.00;52039.75;2088470;28;24061;-64
2023/09/09 00:31:22;;;;;;;;;;;;;;;-146.25;100.00;52021.50;2088576;28;32072;-63
2023/09/09 00:32:23;;;;;;;;;;;;;;;-146.25;100.00;52043.78;2096285;28;29910;-63
2023/09/09 00:33:25;;;;;;;;;;;;;;;-146.25;100.00;51987.03;2096703;28;19924;-64
2023/09/09 00:34:33;;;;;;;;;;;;;;;-146.25;100.00;52035.69;2088660;28;19998;-63
2023/09/09 00:35:38;;;;;;;;;;;;;;;-146.25;100.00;52055.97;2088419;28;22955;-64
2023/09/09 00:36:40;;;;;;;;;;;;;;;-146.25;100.00;52007.31;2087894;28;30765;-63
2023/09/09 00:37:42;;;;;;;;;;;;;;;-146.25;100.00;52047.84;2088215;28;24202;-64
2023/09/09 00:38:45;;;;;;;;;;;;;;;-146.25;100.00;52027.56;2088435;28;20019;-63
2023/09/09 00:39:47;;;;;;;;;;;;;;;-146.25;100.00;52035.69;2080277;28;20028;-64
2023/09/09 00:41:13;;;;;;;;;;;;;;;-146.25;100.00;52007.31;2079736;28;22692;-64
2023/09/09 00:42:17;;;;;;;;;;;;;;;-146.25;100.00;52045.81;2088500;28;20712;-65
2023/09/09 00:43:18;;;;;;;;;;;;;;;-146.25;100.00;52049.88;2079314;28;30061;-65
2023/09/09 00:44:20;;;;;;;;;;;;;;;-146.25;100.00;52051.91;2087759;28;30537;-64
2023/09/09 00:45:22;;;;;;;;;;;;;;;-146.25;100.00;52031.63;2088506;28;30303;-64
2023/09/09 00:46:24;;;;;;;;;;;;;;;-146.25;100.00;52007.31;2096655;28;31234;-65
2023/09/09 00:47:26;;;;;;;;;;;;;;;-146.25;100.00;52031.63;2088335;28;19921;-65
2023/09/09 00:48:28;;;;;;;;;;;;;;;-146.25;100.00;52047.84;2088299;28;26520;-65
2023/09/09 00:49:29;;;;;;;;;;;;;;;-146.25;100.00;52011.34;2088301;28;27588;-65
2023/09/09 00:50:31;;;;;;;;;;;;;;;-146.25;100.00;52039.75;2088386;28;19968;-65
2023/09/09 00:51:37;;;;;;;;;;;;;;;-146.25;100.00;51997.16;2088324;28;19928;-65
2023/09/09 00:52:40;;;;;;;;;;;;;;;-146.25;100.00;52015.41;2088099;28;22030;-65
2023/09/09 00:53:42;;;;;;;;;;;;;;;-146.25;100.00;52033.66;2088096;28;25953;-65
2023/09/09 00:54:44;;;;;;;;;;;;;;;-146.25;100.00;52047.84;2096309;28;30734;-65
2023/09/09 00:55:45;;;;;;;;;;;;;;;-146.25;100.00;52060.00;2087275;28;30158;-65
2023/09/09 00:56:50;;;;;;;;;;;;;;;-146.25;100.00;52027.56;2088576;28;19921;-65
2023/09/09 00:57:52;;;;;;;;;;;;;;;-146.25;100.00;52055.97;2087796;28;25181;-65
2023/09/09 00:58:56;;;;;;;;;;;;;;;-146.25;100.00;52015.41;2088254;28;28892;-65
2023/09/09 00:59:57;;;;;;;;;;;;;;;-146.25;100.00;52035.69;2087652;28;35548;-66
2023/09/09 01:01:05;;;;;;;;;;;;;;;-146.25;100.00;52043.78;2080646;28;19925;-65
2023/09/09 01:02:06;;;;;;;;;;;;;;;-146.25;100.00;52013.38;2087835;28;27864;-64
2023/09/09 01:03:11;;;;;;;;;;;;;;;-146.25;100.00;52043.78;2089173;28;19929;-66
2023/09/09 01:04:13;;;;;;;;;;;;;;;-146.25;100.00;52068.13;2088431;28;27784;-66
2023/09/09 01:05:15;;;;;;;;;;;;;;;-146.25;100.00;52051.91;2088531;28;29518;-65
2023/09/09 01:06:17;;;;;;;;;;;;;;;-146.25;100.00;52072.19;2088943;28;19928;-65
2023/09/09 01:07:19;;;;;;;;;;;;;;;-146.25;100.00;52047.84;2088992;28;19917;-65
2023/09/09 01:08:28;;;;;;;;;;;;;;;-146.25;100.00;52031.63;2089092;28;27674;-65
2023/09/09 01:09:30;;;;;;;;;;;;;;;-146.25;100.00;52007.31;2088592;28;28429;-65
2023/09/09 01:10:32;;;;;;;;;;;;;;;-146.25;100.00;52039.75;2088479;28;29304;-65
2023/09/09 01:11:34;;;;;;;;;;;;;;;-146.25;100.00;52031.63;2088240;28;32118;-65
2023/09/09 01:12:36;;;;;;;;;;;;;;;-146.25;100.00;52023.53;2088063;28;27714;-65
2023/09/09 01:13:38;;;;;;;;;;;;;;;-146.25;100.00;52029.59;2087672;28;33843;-65
2023/09/09 01:14:41;;;;;;;;;;;;;;;-146.25;100.00;52031.63;2088156;28;20895;-65
2023/09/09 01:15:42;;;;;;;;;;;;;;;-146.25;100.00;52045.81;2088692;28;29777;-65
2023/09/09 01:16:48;;;;;;;;;;;;;;;-146.25;100.00;52031.63;2087242;28;29935;-65
2023/09/09 01:17:52;;;;;;;;;;;;;;;-146.25;100.00;52039.75;2087724;28;28505;-64
2023/09/09 01:18:53;;;;;;;;;;;;;;;-146.25;100.00;52068.13;2087458;28;27892;-65
2023/09/09 01:19:58;;;;;;;;;;;;;;;-146.25;100.00;52021.50;2088332;28;19921;-65
2023/09/09 01:21:06;;;;;;;;;;;;;;;-146.25;100.00;52035.69;2088131;28;27058;-65
2023/09/09 01:22:17;;;;;;;;;;;;;;;-146.25;100.00;52039.75;2088683;28;26285;-64
2023/09/09 01:23:18;;;;;;;;;;;;;;;-146.25;100.00;52041.75;2089114;28;20802;-65
2023/09/09 01:24:20;;;;;;;;;;;;;;;-146.25;100.00;52031.63;2088521;28;30161;-63
2023/09/09 01:25:22;;;;;;;;;;;;;;;-146.25;100.00;52064.06;2088674;28;19921;-63
2023/09/09 01:26:23;;;;;;;;;;;;;;;-146.25;100.00;52045.81;2088623;28;26457;-62
2023/09/09 01:27:25;;;;;;;;;;;;;;;-146.25;100.00;52086.38;2088164;28;27619;-62
2023/09/09 01:28:27;;;;;;;;;;;;;;;-146.25;100.00;52047.84;2088854;28;25719;-62
2023/09/09 01:29:28;;;;;;;;;;;;;;;-146.25;100.00;52041.75;2088167;28;33938;-63
2023/09/09 01:30:31;;;;;;;;;;;;;;;-146.25;100.00;52039.75;2089071;28;19921;-62
2023/09/09 01:31:34;;;;;;;;;;;;;;;-146.25;100.00;52035.69;2088643;28;28719;-62
2023/09/09 01:32:38;;;;;;;;;;;;;;;-146.25;100.00;52062.03;2088397;28;34453;-62
2023/09/09 01:33:40;;;;;;;;;;;;;;;-146.25;100.00;52045.81;2087741;28;30698;-63
2023/09/09 01:34:42;;;;;;;;;;;;;;;-146.25;100.00;52045.81;2095830;28;31413;-62
2023/09/09 01:35:46;;;;;;;;;;;;;;;-146.25;100.00;52060.00;2096291;28;20785;-62
2023/09/09 01:36:48;;;;;;;;;;;;;;;-146.25;100.00;52045.81;2096532;28;20869;-63
2023/09/09 01:37:50;;;;;;;;;;;;;;;-146.25;100.00;52055.97;2087563;28;25502;-62
2023/09/09 01:38:54;;;;;;;;;;;;;;;-146.25;100.00;52043.78;2080818;28;19925;-62
2023/09/09 01:39:56;;;;;;;;;;;;;;;-146.25;100.00;52027.56;2087448;28;28023;-62
2023/09/09 01:41:01;;;;;;;;;;;;;;;-146.25;100.00;52011.34;2088168;28;19983;-62
2023/09/09 01:42:02;;;;;;;;;;;;;;;-146.25;100.00;52031.63;2087960;28;19948;-63
2023/09/09 01:43:04;;;;;;;;;;;;;;;-146.25;100.00;52043.78;2088113;28;20344;-63
2023/09/09 01:44:06;;;;;;;;;;;;;;;-146.25;100.00;52062.03;2079475;28;20004;-63
2023/09/09 01:45:08;;;;;;;;;;;;;;;-146.25;100.00;52076.22;2088410;28;19975;-64
2023/09/09 01:46:09;;;;;;;;;;;;;;;-146.25;100.00;52035.69;2087657;28;19925;-63
2023/09/09 01:47:13;;;;;;;;;;;;;;;-146.25;100.00;52066.09;2088734;28;19988;-64
2023/09/09 01:48:18;;;;;;;;;;;;;;;-146.25;100.00;52078.25;2096077;28;19966;-63
2023/09/09 01:49:22;;;;;;;;;;;;;;;-146.25;100.00;52051.91;2087930;28;20797;-64
2023/09/09 01:50:24;;;;;;;;;;;;;;;-146.25;100.00;52068.13;2087470;28;33167;-63
2023/09/09 01:51:28;;;;;;;;;;;;;;;-146.25;100.00;52039.75;2088189;28;19928;-64
2023/09/09 01:52:30;;;;;;;;;;;;;;;-146.25;100.00;52084.34;2079403;28;25980;-63
2023/09/09 01:53:31;;;;;;;;;;;;;;;-146.25;100.00;52039.75;2079866;28;31899;-64
2023/09/09 01:54:34;;;;;;;;;;;;;;;-146.25;100.00;52043.78;2088027;28;21025;-63
2023/09/09 01:55:36;;;;;;;;;;;;;;;-146.25;100.00;52080.28;2088913;28;20775;-63
2023/09/09 01:56:37;;;;;;;;;;;;;;;-146.25;100.00;52062.03;2087719;28;20679;-63
2023/09/09 01:57:39;;;;;;;;;;;;;;;-146.25;100.00;52072.19;2088342;28;19964;-63
2023/09/09 01:58:42;;;;;;;;;;;;;;;-146.25;100.00;52060.00;2087891;28;20841;-63
2023/09/09 01:59:43;;;;;;;;;;;;;;;-146.25;100.00;52070.16;2088104;28;19917;-63
2023/09/09 02:00:45;;;;;;;;;;;;;;;-146.25;100.00;52043.78;2086964;28;20018;-63
2023/09/09 02:01:46;;;;;;;;;;;;;;;-146.25;100.00;52064.06;2079495;28;32073;-64
2023/09/09 02:02:50;;;;;;;;;;;;;;;-146.25;100.00;52058.00;2087983;28;19921;-63
2023/09/09 02:03:52;;;;;;;;;;;;;;;-146.25;100.00;52055.97;2088478;28;31153;-64
2023/09/09 02:04:54;;;;;;;;;;;;;;;-146.25;100.00;52086.38;2087275;28;27581;-64
2023/09/09 02:05:55;;;;;;;;;;;;;;;-146.25;100.00;52047.84;2087488;28;30250;-64
2023/09/09 02:06:57;;;;;;;;;;;;;;;-146.25;100.00;52051.91;2088243;28;25701;-65
2023/09/09 02:07:59;;;;;;;;;;;;;;;-146.25;100.00;52051.91;2088637;28;28038;-66
2023/09/09 02:09:01;;;;;;;;;;;;;;;-146.25;100.00;52053.94;2089484;28;27900;-64
2023/09/09 02:10:03;;;;;;;;;;;;;;;-146.25;100.00;52043.78;2090400;28;19925;-65
2023/09/09 02:11:06;;;;;;;;;;;;;;;-146.25;100.00;52051.91;2088722;28;27944;-64
2023/09/09 02:12:08;;;;;;;;;;;;;;;-146.25;100.00;52088.41;2089681;28;19947;-65
2023/09/09 02:13:11;;;;;;;;;;;;;;;-146.25;100.00;52060.00;2089377;28;23912;-64
2023/09/09 02:14:13;;;;;;;;;;;;;;;-146.25;100.00;52051.91;2089266;28;19917;-63
2023/09/09 02:15:15;;;;;;;;;;;;;;;-146.25;100.00;52070.16;2089538;28;20038;-64
2023/09/09 02:16:20;;;;;;;;;;;;;;;-146.25;100.00;52070.16;2097115;28;39558;-63
2023/09/09 02:17:22;;;;;;;;;;;;;;;-146.25;100.00;52062.03;2097180;28;27465;-65
2023/09/09 02:18:23;;;;;;;;;;;;;;;-146.25;100.00;52076.22;2097567;28;29156;-65
2023/09/09 02:19:26;;;;;;;;;;;;;;;-146.25;100.00;51999.19;2097132;28;20005;-65
2023/09/09 02:20:27;;;;;;;;;;;;;;;-146.25;100.00;52047.84;2089363;28;19921;-64
2023/09/09 02:21:29;;;;;;;;;;;;;;;-146.25;100.00;52082.31;2088629;28;32587;-65
2023/09/09 02:22:31;;;;;;;;;;;;;;;-146.25;100.00;52084.34;2089715;28;30696;-64
2023/09/09 02:23:38;;;;;;;;;;;;;;;-146.25;100.00;52047.84;2097037;28;20007;-65
2023/09/09 02:24:40;;;;;;;;;;;;;;;-146.25;100.00;52041.75;2088844;28;26266;-64
2023/09/09 02:25:42;;;;;;;;;;;;;;;-146.25;100.00;52076.22;2089288;28;19929;-64
2023/09/09 02:26:46;;;;;;;;;;;;;;;-146.25;100.00;52037.72;2098055;28;19925;-64
2023/09/09 02:27:47;;;;;;;;;;;;;;;-146.25;100.00;52076.22;2089000;28;30260;-65
2023/09/09 02:28:49;;;;;;;;;;;;;;;-146.25;100.00;52039.75;2089231;28;30305;-64
2023/09/09 02:29:51;;;;;;;;;;;;;;;-146.25;100.00;52096.50;2089004;28;27509;-65
2023/09/09 02:30:52;;;;;;;;;;;;;;;-146.25;100.00;52035.69;2089635;28;25255;-64
2023/09/09 02:31:54;;;;;;;;;;;;;;;-146.25;100.00;52045.81;2089436;28;19998;-65
2023/09/09 02:32:56;;;;;;;;;;;;;;;-146.25;100.00;52062.03;2089865;28;19951;-64
2023/09/09 02:33:59;;;;;;;;;;;;;;;-146.25;100.00;52031.63;2097063;28;19920;-64
2023/09/09 02:35:01;;;;;;;;;;;;;;;-146.25;100.00;52043.78;2088733;28;20063;-63
2023/09/09 02:36:03;;;;;;;;;;;;;;;-146.25;100.00;52078.25;2080417;28;28133;-65
2023/09/09 02:37:14;;;;;;;;;;;;;;;-146.25;100.00;52045.81;2080775;28;19932;-65
2023/09/09 02:38:18;;;;;;;;;;;;;;;-146.25;100.00;52076.22;2089286;28;26276;-65
2023/09/09 02:39:20;;;;;;;;;;;;;;;-146.25;100.00;52084.34;2097447;28;20829;-65
2023/09/09 02:40:21;;;;;;;;;;;;;;;-146.25;100.00;52068.13;2096889;28;30571;-65
2023/09/09 02:41:26;;;;;;;;;;;;;;;-146.25;100.00;52082.31;2089833;28;22452;-65
2023/09/09 02:42:27;;;;;;;;;;;;;;;-146.25;100.00;52062.03;2089295;28;23414;-64
2023/09/09 02:43:30;;;;;;;;;;;;;;;-146.25;100.00;52060.00;2097349;28;20064;-65
2023/09/09 02:44:31;;;;;;;;;;;;;;;-146.25;100.00;52080.28;2097532;28;19923;-64
2023/09/09 02:45:33;;;;;;;;;;;;;;;-146.25;100.00;52082.31;2089964;28;21645;-64
2023/09/09 02:46:35;;;;;;;;;;;;;;;-146.25;100.00;52033.66;2088574;28;23752;-65
2023/09/09 02:47:39;;;;;;;;;;;;;;;-146.25;100.00;52031.63;2089205;28;21491;-65
2023/09/09 02:48:40;;;;;;;;;;;;;;;-146.25;100.00;52080.28;2088387;28;19921;-64
2023/09/09 02:49:43;;;;;;;;;;;;;;;-146.25;100.00;52055.97;2080545;28;25204;-64
2023/09/09 02:50:45;;;;;;;;;;;;;;;-146.25;100.00;52060.00;2088452;28;24487;-65
2023/09/09 02:51:47;;;;;;;;;;;;;;;-146.25;100.00;52066.09;2090208;28;20010;-64
2023/09/09 02:52:49;;;;;;;;;;;;;;;-146.25;100.00;52062.03;2089345;28;22870;-64
2023/09/09 02:53:50;;;;;;;;;;;;;;;-146.25;100.00;52068.13;2089161;28;20912;-64
2023/09/09 02:54:52;;;;;;;;;;;;;;;-146.25;100.00;52068.13;2089139;28;19917;-64
2023/09/09 02:55:54;;;;;;;;;;;;;;;-146.25;100.00;52068.13;2097010;28;26301;-64
2023/09/09 02:56:55;;;;;;;;;;;;;;;-146.25;100.00;52037.72;2088633;28;21980;-63
2023/09/09 02:57:58;;;;;;;;;;;;;;;-146.25;100.00;52066.09;2089165;28;25752;-64
2023/09/09 02:59:02;;;;;;;;;;;;;;;-146.25;100.00;52033.66;2089453;28;19932;-64
2023/09/09 03:00:09;;;;;;;;;;;;;;;-146.25;100.00;52045.81;2089334;28;19932;-65
2023/09/09 03:01:13;;;;;;;;;;;;;;;-146.25;100.00;52070.16;2088787;28;24382;-64
2023/09/09 03:02:14;;;;;;;;;;;;;;;-146.25;100.00;52049.88;2089561;28;25288;-64
2023/09/09 03:03:16;;;;;;;;;;;;;;;-146.25;100.00;52055.97;2097050;28;19940;-63
2023/09/09 03:04:21;;;;;;;;;;;;;;;-146.25;100.00;52076.22;2088817;28;19987;-64
2023/09/09 03:05:22;;;;;;;;;;;;;;;-146.25;100.00;52068.13;2088619;28;19921;-64
2023/09/09 03:06:26;;;;;;;;;;;;;;;-146.25;100.00;52068.13;2089378;28;26458;-64
2023/09/09 03:07:27;;;;;;;;;;;;;;;-146.25;100.00;52066.09;2088879;28;20724;-64
2023/09/09 03:08:29;;;;;;;;;;;;;;;-146.25;100.00;52049.88;2089251;28;19917;-64
2023/09/09 03:09:32;;;;;;;;;;;;;;;-146.25;100.00;52058.00;2080420;28;20706;-64
2023/09/09 03:10:34;;;;;;;;;;;;;;;-146.25;100.00;52066.09;2089193;28;22324;-63
2023/09/09 03:11:36;;;;;;;;;;;;;;;-146.25;100.00;52088.41;2088095;28;19921;-64
2023/09/09 03:12:38;;;;;;;;;;;;;;;-146.25;100.00;52080.28;2089019;28;24262;-64
2023/09/09 03:13:39;;;;;;;;;;;;;;;-146.25;100.00;52084.34;2088986;28;19959;-63
2023/09/09 03:14:41;;;;;;;;;;;;;;;-146.25;100.00;52066.09;2096992;28;19947;-63
2023/09/09 03:15:42;;;;;;;;;;;;;;;-146.25;100.00;52068.13;2097135;28;20792;-63
2023/09/09 03:16:45;;;;;;;;;;;;;;;-146.25;100.00;52080.28;2089667;28;19917;-63
2023/09/09 03:17:47;;;;;;;;;;;;;;;-146.25;100.00;52066.09;2097138;28;19928;-63
2023/09/09 03:18:51;;;;;;;;;;;;;;;-146.25;100.00;52078.25;2097387;28;19932;-63
2023/09/09 03:19:53;;;;;;;;;;;;;;;-146.25;100.00;52076.22;2088695;28;25027;-64
2023/09/09 03:20:55;;;;;;;;;;;;;;;-146.25;100.00;52064.06;2088832;28;19917;-63
2023/09/09 03:21:59;;;;;;;;;;;;;;;-146.25;100.00;52058.00;2088905;28;20786;-64
2023/09/09 03:23:05;;;;;;;;;;;;;;;-146.25;100.00;52084.34;2090053;28;19932;-64
2023/09/09 03:24:06;;;;;;;;;;;;;;;-146.25;100.00;52080.28;2088605;28;27620;-64
2023/09/09 03:25:08;;;;;;;;;;;;;;;-146.25;100.00;52066.09;2088687;28;22845;-63
2023/09/09 03:26:10;;;;;;;;;;;;;;;-146.25;100.00;52080.28;2088103;28;30877;-63
2023/09/09 03:27:12;;;;;;;;;;;;;;;-146.25;100.00;52047.84;2089037;28;19925;-63
2023/09/09 03:28:15;;;;;;;;;;;;;;;-146.25;100.00;52116.78;2088495;28;19921;-63
2023/09/09 03:29:17;;;;;;;;;;;;;;;-146.25;100.00;52096.50;2089251;28;19994;-63
2023/09/09 03:30:20;;;;;;;;;;;;;;;-146.25;100.00;52072.19;2089545;28;20043;-64
2023/09/09 03:31:22;;;;;;;;;;;;;;;-146.25;100.00;52068.13;2089064;28;20717;-62
2023/09/09 03:32:25;;;;;;;;;;;;;;;-146.25;100.00;52068.13;2088454;28;25920;-62
2023/09/09 03:33:27;;;;;;;;;;;;;;;-146.25;100.00;52060.00;2089403;28;26100;-63
2023/09/09 03:34:29;;;;;;;;;;;;;;;-146.25;100.00;52055.97;2096646;28;19927;-62
2023/09/09 03:35:31;;;;;;;;;;;;;;;-146.25;100.00;52072.19;2087771;28;32054;-62
2023/09/09 03:36:32;;;;;;;;;;;;;;;-146.25;100.00;52080.28;2088727;28;20806;-62
2023/09/09 03:37:34;;;;;;;;;;;;;;;-146.25;100.00;52076.22;2097357;28;19909;-62
2023/09/09 03:38:36;;;;;;;;;;;;;;;-146.25;100.00;52072.19;2088422;28;19925;-62
2023/09/09 03:39:38;;;;;;;;;;;;;;;-146.25;100.00;52068.13;2089211;28;19925;-62
2023/09/09 03:40:42;;;;;;;;;;;;;;;-146.25;100.00;52084.34;2088225;28;19925;-62
2023/09/09 03:41:46;;;;;;;;;;;;;;;-146.25;100.00;52112.72;2080843;28;20808;-62
2023/09/09 03:42:48;;;;;;;;;;;;;;;-146.25;100.00;52072.19;2088904;28;20704;-62
2023/09/09 03:43:49;;;;;;;;;;;;;;;-146.25;100.00;52078.25;2097374;28;19925;-62
2023/09/09 03:44:53;;;;;;;;;;;;;;;-146.25;100.00;52084.34;2089561;28;20750;-63
2023/09/09 03:45:55;;;;;;;;;;;;;;;-146.25;100.00;52066.09;2088488;28;20022;-64
2023/09/09 03:46:57;;;;;;;;;;;;;;;-146.25;100.00;52108.66;2080208;28;19921;-62
2023/09/09 03:47:58;;;;;;;;;;;;;;;-146.25;100.00;52086.38;2088568;28;25095;-63
2023/09/09 03:49:00;;;;;;;;;;;;;;;-146.25;100.00;52084.34;2096780;28;20126;-63
2023/09/09 03:50:05;;;;;;;;;;;;;;;-146.25;100.00;52039.75;2097091;28;19921;-63
2023/09/09 03:51:07;;;;;;;;;;;;;;;-146.25;100.00;52080.28;2088528;28;20047;-64
2023/09/09 03:52:08;;;;;;;;;;;;;;;-146.25;100.00;52060.00;2088923;28;20052;-63
2023/09/09 03:53:10;;;;;;;;;;;;;;;-146.25;100.00;52100.56;2088289;28;19928;-64
2023/09/09 03:54:12;;;;;;;;;;;;;;;-146.25;100.00;52078.25;2088796;28;20856;-64
2023/09/09 03:55:13;;;;;;;;;;;;;;;-146.25;100.00;52062.03;2096716;28;19925;-64
2023/09/09 03:56:18;;;;;;;;;;;;;;;-146.25;100.00;52062.03;2097056;28;19951;-64
2023/09/09 03:57:20;;;;;;;;;;;;;;;-146.25;100.00;52076.22;2089110;28;20048;-63
2023/09/09 03:58:24;;;;;;;;;;;;;;;-146.25;100.00;52080.28;2088918;28;20086;-63
2023/09/09 03:59:29;;;;;;;;;;;;;;;-146.25;100.00;52070.16;2088650;28;20798;-63
2023/09/09 04:00:33;;;;;;;;;;;;;;;-146.25;100.00;52098.53;2089004;28;19921;-63
2023/09/09 04:01:36;;;;;;;;;;;;;;;-146.25;100.00;52088.41;2088330;28;28500;-63
2023/09/09 04:02:38;;;;;;;;;;;;;;;-146.25;100.00;52080.28;2096994;28;19954;-63
2023/09/09 04:03:40;;;;;;;;;;;;;;;-146.25;100.00;52080.28;2096471;28;19932;-63
2023/09/09 04:04:45;;;;;;;;;;;;;;;-146.25;100.00;52108.66;2088787;28;19928;-63
2023/09/09 04:05:47;;;;;;;;;;;;;;;-146.25;100.00;52092.44;2088183;28;20837;-63
2023/09/09 04:06:49;;;;;;;;;;;;;;;-146.25;100.00;52086.38;2089157;28;20092;-64
2023/09/09 04:07:51;;;;;;;;;;;;;;;-146.25;100.00;52055.97;2096262;28;20039;-64
2023/09/09 04:08:56;;;;;;;;;;;;;;;-146.25;100.00;52068.13;2088702;28;19917;-64
2023/09/09 04:09:58;;;;;;;;;;;;;;;-146.25;100.00;52039.75;2088872;28;20812;-64
2023/09/09 04:11:05;;;;;;;;;;;;;;;-146.25;100.00;52080.28;2088673;28;20059;-64
2023/09/09 04:12:08;;;;;;;;;;;;;;;-146.25;100.00;52058.00;2081131;28;19921;-63
2023/09/09 04:13:10;;;;;;;;;;;;;;;-146.25;100.00;52082.31;2088050;28;31725;-63
2023/09/09 04:14:12;;;;;;;;;;;;;;;-146.25;100.00;52080.28;2088420;28;19921;-62
2023/09/09 04:15:13;;;;;;;;;;;;;;;-146.25;100.00;52049.88;2079672;28;23067;-62
2023/09/09 04:16:15;;;;;;;;;;;;;;;-146.25;100.00;52086.38;2088434;28;19933;-63
2023/09/09 04:17:17;;;;;;;;;;;;;;;-146.25;100.00;52080.28;2088591;28;20007;-62
2023/09/09 04:18:19;;;;;;;;;;;;;;;-146.25;100.00;52094.47;2089082;28;20082;-62
2023/09/09 04:19:31;;;;;;;;;;;;;;;-146.25;100.00;52106.66;2087935;28;28819;-63
2023/09/09 04:20:32;;;;;;;;;;;;;;;-146.25;100.00;52062.03;2079963;28;19991;-62
2023/09/09 04:21:34;;;;;;;;;;;;;;;-146.25;100.00;52102.59;2087877;28;33471;-63
2023/09/09 04:22:36;;;;;;;;;;;;;;;-146.25;100.00;52112.72;2088370;28;20056;-62
2023/09/09 04:23:37;;;;;;;;;;;;;;;-146.25;100.00;52088.41;2097277;28;20136;-63
2023/09/09 04:24:39;;;;;;;;;;;;;;;-146.25;100.00;52098.53;2096716;28;20878;-63
2023/09/09 04:25:43;;;;;;;;;;;;;;;-146.25;100.00;52076.22;2096978;28;19929;-63
2023/09/09 04:26:45;;;;;;;;;;;;;;;-146.25;100.00;52112.72;2087989;28;19995;-62
2023/09/09 04:27:47;;;;;;;;;;;;;;;-146.25;100.00;52100.56;2088088;28;28335;-62
2023/09/09 04:28:49;;;;;;;;;;;;;;;-146.25;100.00;52055.97;2089405;28;24423;-62
2023/09/09 04:29:50;;;;;;;;;;;;;;;-146.25;100.00;52098.53;2088938;28;26513;-62
2023/09/09 04:30:52;;;;;;;;;;;;;;;-146.25;100.00;52092.44;2087447;28;19921;-62
2023/09/09 04:31:54;;;;;;;;;;;;;;;-146.25;100.00;52102.59;2087987;28;27586;-63
2023/09/09 04:32:58;;;;;;;;;;;;;;;-146.25;100.00;52112.72;2096456;28;20059;-63
2023/09/09 04:34:00;;;;;;;;;;;;;;;-146.25;100.00;52088.41;2096650;28;20778;-63
2023/09/09 04:35:04;;;;;;;;;;;;;;;-146.25;100.00;52114.75;2096602;28;19920;-62
2023/09/09 04:36:06;;;;;;;;;;;;;;;-146.25;100.00;52088.41;2096593;28;27284;-63
2023/09/09 04:37:10;;;;;;;;;;;;;;;-146.25;100.00;52090.44;2088349;28;19932;-62
2023/09/09 04:38:11;;;;;;;;;;;;;;;-146.25;100.00;52084.34;2080170;28;19929;-63
2023/09/09 04:39:14;;;;;;;;;;;;;;;-146.25;100.00;52092.44;2079265;28;19913;-63
2023/09/09 04:40:16;;;;;;;;;;;;;;;-146.25;100.00;52112.72;2080258;28;19999;-63
2023/09/09 04:41:17;;;;;;;;;;;;;;;-146.25;100.00;52064.06;2088493;28;20889;-63
2023/09/09 04:42:21;;;;;;;;;;;;;;;-146.25;100.00;52108.66;2089329;28;19921;-63
2023/09/09 04:43:22;;;;;;;;;;;;;;;-146.25;100.00;52100.56;2088565;28;31784;-63
2023/09/09 04:44:24;;;;;;;;;;;;;;;-146.25;100.00;52108.66;2088352;28;19909;-61
2023/09/09 04:45:26;;;;;;;;;;;;;;;-146.25;100.00;52114.75;2079817;28;20061;-62
2023/09/09 04:46:27;;;;;;;;;;;;;;;-146.25;100.00;52100.56;2088458;28;19960;-62
2023/09/09 04:47:29;;;;;;;;;;;;;;;-146.25;100.00;52088.41;2095833;28;24865;-61
2023/09/09 04:48:32;;;;;;;;;;;;;;;-146.25;100.00;52128.94;2089129;28;19925;-61
2023/09/09 04:49:34;;;;;;;;;;;;;;;-146.25;100.00;52090.44;2088189;28;20028;-62
2023/09/09 04:50:36;;;;;;;;;;;;;;;-146.25;100.00;52118.81;2088199;28;19921;-62
2023/09/09 04:51:37;;;;;;;;;;;;;;;-146.25;100.00;52102.59;2096620;28;28356;-61
2023/09/09 04:52:42;;;;;;;;;;;;;;;-146.25;100.00;52108.66;2089100;28;19991;-62
2023/09/09 04:53:43;;;;;;;;;;;;;;;-146.25;100.00;52120.84;2096539;28;19991;-62
2023/09/09 04:54:45;;;;;;;;;;;;;;;-146.25;100.00;52092.44;2088389;28;20010;-61
2023/09/09 04:55:47;;;;;;;;;;;;;;;-146.25;100.00;52112.72;2079714;28;20668;-62
2023/09/09 04:56:48;;;;;;;;;;;;;;;-146.25;100.00;52072.19;2088428;28;28673;-61
2023/09/09 04:57:50;;;;;;;;;;;;;;;-146.25;100.00;52114.75;2087831;28;19979;-62
2023/09/09 04:58:52;;;;;;;;;;;;;;;-146.25;100.00;52086.38;2079587;28;19975;-62
2023/09/09 04:59:53;;;;;;;;;;;;;;;-146.25;100.00;52106.66;2079834;28;19921;-62
2023/09/09 05:00:55;;;;;;;;;;;;;;;-146.25;100.00;52084.34;2088419;28;20043;-61
2023/09/09 05:01:57;;;;;;;;;;;;;;;-146.25;100.00;52104.63;2087686;28;19968;-61
2023/09/09 05:02:59;;;;;;;;;;;;;;;-146.25;100.00;52086.38;2088472;28;19929;-61
2023/09/09 05:04:03;;;;;;;;;;;;;;;-146.25;100.00;52068.13;2096517;28;19924;-62
2023/09/09 05:05:06;;;;;;;;;;;;;;;-146.25;100.00;52092.44;2088214;28;19928;-61
2023/09/09 05:06:09;;;;;;;;;;;;;;;-146.25;100.00;52104.63;2088261;28;19932;-62
2023/09/09 05:07:11;;;;;;;;;;;;;;;-146.25;100.00;52100.56;2088342;28;19925;-62
2023/09/09 05:08:12;;;;;;;;;;;;;;;-146.25;100.00;52092.44;2088184;28;19913;-62
2023/09/09 05:09:14;;;;;;;;;;;;;;;-146.25;100.00;52092.44;2088390;28;19971;-61
2023/09/09 05:10:16;;;;;;;;;;;;;;;-146.25;100.00;52104.63;2087843;28;20139;-62
2023/09/09 05:11:19;;;;;;;;;;;;;;;-146.25;100.00;52104.63;2088353;28;19925;-61
2023/09/09 05:12:21;;;;;;;;;;;;;;;-146.25;100.00;52086.38;2088850;28;20059;-63
2023/09/09 05:13:22;;;;;;;;;;;;;;;-146.25;100.00;52090.44;2097033;28;21968;-61